Fort Smith Regional Airport (KFSM) Information & Weather

WARNING: the data listed below is for informational purposes only and should be confirmed from official sources. Data presented here on this page may be out of date, incomplete or wrong.

Name: Fort Smith Regional Airport
Identifier: KFSM

Coord: 35.3366N 94.3674W
Var: 2°E

Country: United States
Municipality: FT SMITH, AR
Time Zone: (GMT-06:00) America/Chicago

Station Elevation: 469 ft
Pressure Altitude: 376 ft
Density Altitude: 1474 ft
Freezing Level: 11075 ft

Civil Twilight
Morning: 10:37 UTC  (04:37 local)
Evening: 01:51 UTC  (19:51 local)

Flight Category: MVFR (24 minutes ago)

SPECI KFSM 251421Z 10005KT 10SM BKN029 OVC045 21/19 A3001 RMK AO2 T02110189=

METAR KFSM 251353Z 04005KT 10SM BKN033 OVC042 21/19 A3001 RMK AO2 SLP159 T02060189= [toggle past 4 hours]

TAF AMD KFSM 251402Z 2514/2612 04005KT P6SM BKN035 TEMPO 2514/2517 VRB15G30KT 2SM TSRA BR BKN025CB FM252100 19013KT P6SM BKN040 FM260300 09005KT P6SM BKN100 FM260900 09005KT P6SM BKN025=

UAV Operators

Looking to operate a drone in the area around Fort Smith Regional Airport (KFSM)? Try out Skyward's Airspace Map and easy flight planning and logging tools designed specifically for drone pilots. See Skyward's website (www.skyward.io) for more information.

Upper Winds

Source   Valid 375 1000 2000 2500 3000 5000 6000 8000 10000 12000 14000 16000 18000 21000 24000 26000 30000 34000 39000 44000 52000 60000
GFS Not currently available

SIGMET/AIRMET

None within 25nm.

PIREP

None within 25nm.

NOTAM

Not tracked at this time. Please check with the local aviation authority for current list of NOTAM for KFSM.

Runway Data

Frequencies

Nearby Airports

Nearby Navaids